Time;durP1;ratioP1;P1;durP2;ratioP2;P2;SDS_P1;SDS_P2;PMS_P1;PMS_P2;Temp;Humidity;BMP_temperature;BMP_pressure;BME280_temperature;BME280_humidity;BME280_pressure;Samples;Min_cycle;Max_cycle;Signal;HPM_P1;HPM_P2
2022/09/07 00:01:13;;;;;;;40.63;3.33;;;;;;;21.21;58.01;99647.25;5031326;28;20254;-87
2022/09/07 00:03:38;;;;;;;11.98;0.80;;;;;;;20.88;60.49;99639.69;5033417;28;20267;-84
2022/09/07 00:06:08;;;;;;;8.98;1.25;;;;;;;21.03;60.67;99649.38;5032692;28;20476;-84
2022/09/07 00:08:34;;;;;;;9.18;0.60;;;;;;;20.88;61.87;99657.13;5027545;28;20029;-84
2022/09/07 00:11:02;;;;;;;12.52;1.33;;;;;;;20.64;62.95;99647.50;5031005;28;20075;-84
2022/09/07 00:13:31;;;;;;;2.35;0.40;;;;;;;20.58;63.79;99656.38;5033044;28;20409;-89
2022/09/07 00:15:57;;;;;;;1.10;0.32;;;;;;;20.86;63.02;99664.16;5034774;28;20026;-89
2022/09/07 00:18:23;;;;;;;1.45;0.52;;;;;;;20.67;63.85;99648.78;5035208;28;20164;-88
2022/09/07 00:20:59;;;;;;;3.63;0.60;;;;;;;20.59;64.29;99661.56;5031787;28;20034;-88
2022/09/07 00:23:26;;;;;;;3.10;0.30;;;;;;;20.60;64.81;99676.22;5033204;28;20063;-87
2022/09/07 00:25:51;;;;;;;3.75;0.82;;;;;;;20.55;64.74;99666.13;5030510;28;20022;-87
2022/09/07 00:28:16;;;;;;;2.15;0.40;;;;;;;20.64;64.71;99675.19;5032814;28;20520;-86
2022/09/07 00:30:42;;;;;;;0.90;0.43;;;;;;;20.42;65.79;99674.34;5032063;28;20112;-85
2022/09/07 00:33:08;;;;;;;0.85;0.40;;;;;;;20.51;66.12;99679.03;5032389;28;20110;-85
2022/09/07 00:35:39;;;;;;;10.38;1.60;;;;;;;20.38;66.44;99673.41;5032521;28;20025;-85
2022/09/07 00:38:04;;;;;;;11.07;0.98;;;;;;;20.11;67.87;99672.72;5032526;28;20148;-85
2022/09/07 00:40:29;;;;;;;1.93;0.40;;;;;;;19.98;68.99;99676.47;5031186;28;20140;-85
2022/09/07 00:42:55;;;;;;;2.87;0.80;;;;;;;19.86;69.91;99669.69;5032271;28;20259;-85
2022/09/07 00:45:20;;;;;;;8.27;2.07;;;;;;;19.84;69.93;99683.03;5032478;28;20250;-83
2022/09/07 00:47:53;;;;;;;2.13;0.40;;;;;;;19.67;71.40;99690.22;5032164;28;20282;-83
2022/09/07 00:50:32;;;;;;;2.83;0.67;;;;;;;20.05;71.26;99683.16;5026750;28;20057;-88
2022/09/07 00:53:12;;;;;;;3.13;0.55;;;;;;;19.90;72.40;99686.44;5030542;28;20017;-86
2022/09/07 00:55:41;;;;;;;2.85;0.90;;;;;;;19.81;73.67;99684.50;5030542;28;20041;-88
2022/09/07 00:58:07;;;;;;;3.70;0.95;;;;;;;19.93;73.30;99683.03;5032317;28;20057;-89
2022/09/07 01:00:33;;;;;;;2.60;0.82;;;;;;;19.94;74.55;99688.22;5028628;28;20061;-84
2022/09/07 01:03:00;;;;;;;2.40;0.68;;;;;;;20.18;74.43;99692.38;5031476;28;20029;-83
2022/09/07 01:05:32;;;;;;;10.68;0.82;;;;;;;20.04;74.50;99688.97;5029606;28;20031;-84
2022/09/07 01:07:58;;;;;;;7.00;1.50;;;;;;;20.00;74.89;99674.19;5029143;28;20099;-82
2022/09/07 01:10:26;;;;;;;2.85;1.10;;;;;;;20.09;75.43;99683.31;5029544;28;20040;-86
2022/09/07 01:12:52;;;;;;;6.05;0.98;;;;;;;20.07;75.48;99680.03;5029819;28;20025;-87
2022/09/07 01:15:19;;;;;;;2.85;0.80;;;;;;;19.83;76.49;99675.91;5032759;28;20052;-85
2022/09/07 01:18:01;;;;;;;2.33;0.57;;;;;;;19.70;78.01;99675.75;5032321;28;20026;-84
2022/09/07 01:20:49;;;;;;;4.13;1.02;;;;;;;19.74;77.33;99670.38;5029990;28;20095;-88
2022/09/07 01:23:52;;;;;;;4.03;1.08;;;;;;;19.88;77.41;99675.69;5030324;28;20601;-88
2022/09/07 01:26:52;;;;;;;2.75;0.88;;;;;;;19.80;78.43;99668.25;5030247;28;20095;-86
2022/09/07 01:29:37;;;;;;;5.32;1.10;;;;;;;19.82;78.46;99674.25;5027217;28;20033;-85
2022/09/07 01:32:38;;;;;;;7.82;2.25;;;;;;;19.89;78.23;99665.47;5030624;28;20025;-85
2022/09/07 01:35:14;;;;;;;4.57;1.58;;;;;;;20.07;78.13;99646.84;5005321;28;20042;-85
2022/09/07 01:37:53;;;;;;;2.17;0.70;;;;;;;20.03;77.87;99637.56;5030130;28;20025;-85
2022/09/07 01:40:30;;;;;;;6.97;1.13;;;;;;;20.11;77.90;99633.16;5026701;28;20374;-83
2022/09/07 01:43:04;;;;;;;1.70;0.80;;;;;;;19.59;81.32;99625.53;5028164;28;20614;-82
2022/09/07 01:45:34;;;;;;;2.97;1.00;;;;;;;19.44;80.36;99626.88;5030993;28;20080;-96
2022/09/07 01:48:04;;;;;;;6.10;1.08;;;;;;;19.07;82.50;99620.88;5032788;28;20037;-95
2022/09/07 01:50:42;;;;;;;3.33;0.63;;;;;;;19.03;83.54;99617.94;5029076;28;20045;-82
2022/09/07 01:53:16;;;;;;;3.60;0.63;;;;;;;18.66;82.11;99608.03;5030196;28;20033;-82
2022/09/07 01:55:50;;;;;;;1.00;0.52;;;;;;;18.86;83.06;99603.00;5030125;28;20108;-82
2022/09/07 01:58:32;;;;;;;3.83;0.60;;;;;;;18.98;82.89;99596.81;5027245;28;20029;-82
2022/09/07 02:01:05;;;;;;;2.10;0.32;;;;;;;18.86;85.33;99596.66;5030142;28;20029;-85
2022/09/07 02:03:39;;;;;;;1.52;0.60;;;;;;;18.62;85.68;99576.69;5030513;28;20029;-85
2022/09/07 02:06:17;;;;;;;4.05;0.77;;;;;;;18.37;86.37;99562.53;5031061;28;20036;-88
2022/09/07 02:08:51;;;;;;;1.42;0.60;;;;;;;18.17;87.75;99553.75;5027777;28;20048;-88
2022/09/07 02:11:27;;;;;;;1.40;0.60;;;;;;;18.12;87.44;99537.34;5029277;28;20395;-82
2022/09/07 02:13:59;;;;;;;4.35;0.75;;;;;;;18.20;89.19;99533.78;5027999;28;20116;-83
2022/09/07 02:16:29;;;;;;;2.72;0.68;;;;;;;18.26;89.44;99514.34;5030680;28;20135;-85
2022/09/07 02:19:00;;;;;;;1.55;0.57;;;;;;;18.19;89.63;99498.25;5029930;28;20095;-85
2022/09/07 02:21:39;;;;;;;1.45;0.50;;;;;;;18.11;89.92;99490.75;5031151;28;20035;-88
2022/09/07 02:24:14;;;;;;;2.88;1.00;;;;;;;18.06;89.88;99472.44;5031434;28;20139;-87
2022/09/07 02:26:44;;;;;;;2.45;0.60;;;;;;;17.85;90.29;99479.38;5030911;28;20029;-88
2022/09/07 02:29:09;;;;;;;1.30;0.60;;;;;;;17.81;90.36;99475.63;5031086;28;20041;-88
2022/09/07 02:31:35;;;;;;;1.80;0.57;;;;;;;17.90;90.38;99469.31;5030673;28;20124;-85
2022/09/07 02:34:00;;;;;;;2.33;0.47;;;;;;;17.69;90.86;99467.16;5030528;28;20308;-85
2022/09/07 02:36:31;;;;;;;2.58;0.60;;;;;;;17.72;89.45;99469.25;5030274;28;20052;-83
2022/09/07 02:38:56;;;;;;;1.92;1.23;;;;;;;17.85;89.77;99471.09;5029251;28;20034;-83
2022/09/07 02:41:29;;;;;;;6.05;1.58;;;;;;;18.10;89.72;99489.94;5029767;28;20121;-85
2022/09/07 02:43:55;;;;;;;2.45;0.88;;;;;;;18.17;88.52;99483.97;5027284;28;20021;-84
2022/09/07 02:46:29;;;;;;;1.38;0.60;;;;;;;18.12;88.81;99487.69;5031531;28;20566;-88
2022/09/07 02:49:21;;;;;;;3.40;1.48;;;;;;;18.41;86.35;99485.44;5029626;28;20121;-88
2022/09/07 02:52:00;;;;;;;2.75;0.75;;;;;;;18.74;85.22;99489.63;5034259;28;20032;-92
2022/09/07 02:55:01;;;;;;;2.53;1.13;;;;;;;19.02;83.95;99483.72;5036973;28;20033;-93
2022/09/07 02:57:26;;;;;;;2.40;0.70;;;;;;;19.07;84.08;99485.50;5020235;28;20491;-85
2022/09/07 03:00:08;;;;;;;1.30;0.60;;;;;;;19.10;83.62;99493.16;5030715;28;20033;-86
2022/09/07 03:02:40;;;;;;;5.15;1.08;;;;;;;19.21;82.65;99485.34;5029825;28;20029;-86
2022/09/07 03:05:18;;;;;;;2.92;0.70;;;;;;;19.34;82.20;99483.50;5030448;28;20033;-86
2022/09/07 03:07:54;;;;;;;1.83;0.90;;;;;;;19.40;81.74;99481.38;5031506;28;20512;-92
2022/09/07 03:10:20;;;;;;;1.63;0.70;;;;;;;19.28;81.96;99484.84;5027171;28;20025;-88
2022/09/07 03:12:48;;;;;;;1.50;0.43;;;;;;;18.88;83.20;99493.03;5030737;28;20048;-88
2022/09/07 03:15:17;;;;;;;2.75;0.90;;;;;;;18.71;83.65;99493.06;5031262;28;20030;-84
2022/09/07 03:17:44;;;;;;;0.98;0.50;;;;;;;19.07;82.30;99479.97;5030232;28;20120;-84
2022/09/07 03:20:09;;;;;;;3.05;1.10;;;;;;;19.19;80.60;99476.56;5028335;28;20053;-89
2022/09/07 03:22:35;;;;;;;2.20;1.00;;;;;;;18.89;82.58;99486.38;5030635;28;20029;-88
2022/09/07 03:25:03;;;;;;;2.63;0.75;;;;;;;18.86;83.57;99487.03;5030708;28;20025;-88
2022/09/07 03:27:29;;;;;;;2.65;1.17;;;;;;;18.85;83.25;99490.13;5029509;28;20033;-88
2022/09/07 03:29:54;;;;;;;2.70;1.08;;;;;;;19.15;82.26;99489.41;5031257;28;20035;-89
2022/09/07 03:32:19;;;;;;;1.97;1.10;;;;;;;19.20;81.79;99481.75;5034794;28;20452;-86
2022/09/07 03:34:47;;;;;;;3.23;1.00;;;;;;;19.01;82.76;99480.19;5034376;28;20270;-86
2022/09/07 03:37:12;;;;;;;2.60;0.82;;;;;;;19.11;81.61;99476.25;5034180;28;20338;-84
2022/09/07 03:39:38;;;;;;;4.55;0.77;;;;;;;19.23;81.08;99472.81;5031618;28;20176;-84
2022/09/07 03:42:03;;;;;;;2.58;1.10;;;;;;;19.19;80.16;99482.91;5034030;28;20083;-85
2022/09/07 03:44:28;;;;;;;3.70;1.20;;;;;;;19.00;80.73;99486.81;5033082;28;20395;-86
2022/09/07 03:46:54;;;;;;;2.92;1.10;;;;;;;18.58;82.94;99481.06;5034360;28;20045;-86
2022/09/07 03:49:19;;;;;;;2.30;1.17;;;;;;;18.32;83.90;99485.44;5032727;28;20041;-86
2022/09/07 03:51:44;;;;;;;2.90;0.55;;;;;;;18.60;83.84;99489.81;5034169;28;20338;-86
2022/09/07 03:54:09;;;;;;;1.63;0.80;;;;;;;18.91;82.06;99491.56;5033964;28;20119;-87
2022/09/07 03:56:35;;;;;;;2.73;0.67;;;;;;;18.94;81.17;99485.38;5033928;28;20277;-84
2022/09/07 03:59:00;;;;;;;2.10;1.17;;;;;;;18.75;81.88;99494.81;5032500;28;20765;-84
2022/09/07 04:01:26;;;;;;;2.55;0.88;;;;;;;18.80;81.49;99493.84;5032876;28;20129;-84
2022/09/07 04:03:55;;;;;;;3.65;0.98;;;;;;;18.92;82.15;99495.94;5032857;28;20030;-83
2022/09/07 04:06:20;;;;;;;3.95;1.33;;;;;;;18.92;81.47;99484.88;5032935;28;20160;-84
2022/09/07 04:08:46;;;;;;;1.58;0.80;;;;;;;18.89;81.10;99480.03;5034609;28;20056;-84
2022/09/07 04:11:14;;;;;;;4.55;1.75;;;;;;;18.69;81.27;99481.53;5033113;28;20065;-89
2022/09/07 04:13:40;;;;;;;2.42;0.82;;;;;;;18.52;82.25;99484.00;5033743;28;20501;-89
2022/09/07 04:16:25;;;;;;;3.85;1.20;;;;;;;18.72;81.84;99481.69;5033843;28;20037;-89
2022/09/07 04:18:53;;;;;;;2.55;1.10;;;;;;;18.77;80.79;99478.75;5032438;28;20091;-88
2022/09/07 04:21:19;;;;;;;3.25;0.90;;;;;;;18.74;81.46;99484.94;5032998;28;20029;-83
2022/09/07 04:23:45;;;;;;;3.45;1.00;;;;;;;18.84;80.95;99494.00;5032707;28;20034;-84
2022/09/07 04:26:17;;;;;;;3.75;1.08;;;;;;;18.90;81.07;99496.28;5031904;28;20452;-87
2022/09/07 04:28:44;;;;;;;3.25;1.45;;;;;;;18.98;81.16;99493.81;5032410;28;20041;-86
2022/09/07 04:31:10;;;;;;;8.02;2.30;;;;;;;18.93;81.25;99489.28;5033436;28;20038;-89
2022/09/07 04:33:35;;;;;;;8.55;1.73;;;;;;;19.00;80.91;99494.28;5033186;28;20036;-88
2022/09/07 04:36:01;;;;;;;3.03;1.10;;;;;;;18.85;81.27;99495.63;5033580;28;20037;-89
2022/09/07 04:38:27;;;;;;;11.68;2.30;;;;;;;18.92;80.75;99498.69;5033398;28;20120;-89
2022/09/07 04:41:00;;;;;;;3.17;1.30;;;;;;;18.86;80.87;99488.97;5032299;28;20034;-89
2022/09/07 04:43:26;;;;;;;1.60;0.97;;;;;;;18.67;81.51;99482.66;5033443;28;20552;-89
2022/09/07 04:45:51;;;;;;;4.35;1.08;;;;;;;18.74;81.67;99490.44;5033773;28;20032;-91
2022/09/07 04:48:17;;;;;;;6.18;1.08;;;;;;;18.69;81.21;99485.13;5033154;28;20041;-91
2022/09/07 04:50:42;;;;;;;2.83;1.10;;;;;;;18.66;80.77;99480.22;5031747;28;20044;-89
2022/09/07 04:53:07;;;;;;;2.07;1.00;;;;;;;18.41;82.68;99485.44;5033793;28;20040;-90
2022/09/07 04:55:32;;;;;;;3.57;1.60;;;;;;;18.59;81.60;99483.47;5033524;28;20263;-84
2022/09/07 04:57:58;;;;;;;1.25;0.70;;;;;;;18.68;81.66;99486.25;5032580;28;20271;-84
2022/09/07 05:00:23;;;;;;;2.70;1.20;;;;;;;18.67;81.58;99485.41;5029814;28;20124;-84
2022/09/07 05:02:48;;;;;;;1.97;0.80;;;;;;;18.24;82.81;99484.31;5031757;28;20254;-84
2022/09/07 05:05:14;;;;;;;1.90;1.15;;;;;;;18.48;82.40;99477.50;5032149;28;20397;-86
2022/09/07 05:07:39;;;;;;;3.42;1.27;;;;;;;18.66;81.52;99474.72;5032759;28;20025;-86
2022/09/07 05:10:04;;;;;;;2.05;0.90;;;;;;;18.40;82.16;99479.13;5033599;28;20595;-87
2022/09/07 05:12:30;;;;;;;2.13;0.95;;;;;;;18.15;82.60;99483.44;5032648;28;20159;-87
2022/09/07 05:14:55;;;;;;;2.35;0.90;;;;;;;18.13;83.04;99485.72;5032532;28;20044;-87
2022/09/07 05:17:21;;;;;;;3.38;1.63;;;;;;;17.90;85.17;99496.91;5033299;28;20024;-89
2022/09/07 05:19:46;;;;;;;2.92;1.23;;;;;;;18.12;84.03;99490.44;5030563;28;20037;-89
2022/09/07 05:22:12;;;;;;;2.05;0.80;;;;;;;18.30;83.65;99501.50;5031901;28;20029;-84
2022/09/07 05:24:37;;;;;;;2.30;1.10;;;;;;;18.21;83.50;99501.50;5030369;28;20108;-84
2022/09/07 05:27:03;;;;;;;3.67;1.37;;;;;;;18.42;82.90;99492.59;5032846;28;20037;-91
2022/09/07 05:29:29;;;;;;;3.47;1.35;;;;;;;18.58;82.15;99503.13;5029740;28;20278;-91
2022/09/07 05:31:55;;;;;;;5.45;1.20;;;;;;;18.70;82.06;99488.66;5032179;28;20040;-89
2022/09/07 05:34:20;;;;;;;3.63;1.50;;;;;;;18.80;81.05;99499.38;5030991;28;20029;-89
2022/09/07 05:36:45;;;;;;;3.22;1.70;;;;;;;18.70;81.46;99500.53;5032759;28;20033;-87
2022/09/07 05:39:11;;;;;;;2.45;1.25;;;;;;;18.85;80.69;99496.47;5031437;28;20546;-87
2022/09/07 05:41:36;;;;;;;5.00;1.17;;;;;;;18.90;80.92;99501.78;5032184;28;20036;-84
2022/09/07 05:44:02;;;;;;;2.63;1.30;;;;;;;18.87;80.84;99498.88;5031453;28;20026;-84
2022/09/07 05:46:27;;;;;;;3.30;1.40;;;;;;;18.94;80.41;99499.19;5059856;28;20092;-90
2022/09/07 05:48:53;;;;;;;17.40;2.47;;;;;;;18.79;81.35;99506.03;5030709;28;20038;-91
2022/09/07 05:51:18;;;;;;;3.28;1.45;;;;;;;18.85;81.37;99501.97;5032190;28;20037;-89
2022/09/07 05:53:49;;;;;;;2.25;1.17;;;;;;;18.81;81.39;99500.19;5031650;28;20083;-89
2022/09/07 05:56:14;;;;;;;3.38;1.63;;;;;;;18.83;82.11;99497.91;5030761;28;20121;-90
2022/09/07 05:58:40;;;;;;;3.03;1.17;;;;;;;18.77;82.49;99500.84;5030877;28;20029;-89
2022/09/07 06:01:07;;;;;;;3.83;2.30;;;;;;;18.93;82.21;99505.88;5030273;28;20037;-84
2022/09/07 06:03:38;;;;;;;3.47;1.27;;;;;;;18.88;82.67;99506.00;5030517;28;20033;-84
2022/09/07 06:06:15;;;;;;;3.30;1.45;;;;;;;18.97;82.30;99508.78;5031121;28;20033;-84
2022/09/07 06:08:49;;;;;;;4.75;1.38;;;;;;;19.07;81.91;99513.13;5029311;28;20036;-84
2022/09/07 06:11:17;;;;;;;2.78;0.90;;;;;;;19.19;81.92;99516.06;5029899;28;20112;-91
2022/09/07 06:13:43;;;;;;;5.35;1.65;;;;;;;19.22;82.18;99509.88;5031517;28;20037;-90
2022/09/07 06:16:10;;;;;;;5.15;1.05;;;;;;;19.27;82.30;99516.34;5031359;28;20051;-84
2022/09/07 06:18:39;;;;;;;3.95;1.10;;;;;;;19.36;82.41;99520.72;5028056;28;20113;-84
2022/09/07 06:21:09;;;;;;;2.80;1.13;;;;;;;19.46;81.87;99515.97;5030317;28;20409;-84
2022/09/07 06:23:37;;;;;;;2.83;1.10;;;;;;;19.48;81.22;99514.50;5030852;28;20052;-84
2022/09/07 06:26:02;;;;;;;3.15;1.48;;;;;;;19.58;80.30;99515.28;5030938;28;20100;-90
2022/09/07 06:28:33;;;;;;;8.95;1.42;;;;;;;19.46;80.32;99515.97;5029600;28;20561;-90
2022/09/07 06:31:03;;;;;;;2.55;1.25;;;;;;;19.41;80.37;99513.38;5030835;28;20099;-86
2022/09/07 06:33:28;;;;;;;3.40;1.48;;;;;;;19.45;80.37;99522.63;5030565;28;20125;-86
2022/09/07 06:35:56;;;;;;;3.22;1.45;;;;;;;19.47;80.76;99515.63;5031017;28;20116;-90
2022/09/07 06:38:21;;;;;;;9.18;1.73;;;;;;;19.58;80.82;99526.34;5030150;28;20021;-90
2022/09/07 06:40:47;;;;;;;3.13;1.45;;;;;;;19.63;81.29;99526.13;5029294;28;20036;-89
2022/09/07 06:43:12;;;;;;;2.93;1.50;;;;;;;19.57;81.75;99535.75;5031216;28;20033;-90
2022/09/07 06:45:37;;;;;;;2.47;1.07;;;;;;;19.34;82.01;99539.56;5035419;28;20312;-84
2022/09/07 06:48:02;;;;;;;3.30;1.27;;;;;;;19.43;81.53;99542.31;5041401;28;20289;-84
2022/09/07 06:50:28;;;;;;;3.58;1.40;;;;;;;19.55;80.47;99549.09;5029574;28;20301;-90
2022/09/07 06:52:53;;;;;;;4.57;1.33;;;;;;;19.45;80.29;99551.09;5031552;28;20026;-90
2022/09/07 06:55:19;;;;;;;5.67;1.97;;;;;;;19.51;80.05;99548.13;5030386;28;20270;-85
2022/09/07 06:57:44;;;;;;;3.35;1.20;;;;;;;19.55;80.32;99557.38;5030237;28;20263;-84
2022/09/07 07:00:10;;;;;;;3.87;1.33;;;;;;;19.59;80.20;99550.06;5029593;28;20064;-88
2022/09/07 07:02:35;;;;;;;3.15;1.40;;;;;;;19.52;80.60;99555.28;5030469;28;20255;-87
2022/09/07 07:05:01;;;;;;;4.93;2.22;;;;;;;19.68;80.83;99552.78;5029859;28;20033;-87
2022/09/07 07:07:26;;;;;;;4.68;1.90;;;;;;;19.64;80.48;99557.38;5030623;28;20079;-91
2022/09/07 07:09:51;;;;;;;6.07;1.47;;;;;;;19.46;82.13;99562.97;5021983;28;20393;-91
2022/09/07 07:12:16;;;;;;;4.13;1.70;;;;;;;19.66;81.91;99564.19;5011028;28;20274;-89
2022/09/07 07:14:42;;;;;;;6.40;2.53;;;;;;;19.80;81.26;99560.38;5010914;28;20259;-88
2022/09/07 07:17:07;;;;;;;5.77;1.63;;;;;;;19.88;82.46;99556.78;5029675;28;20090;-89
2022/09/07 07:19:32;;;;;;;5.57;1.27;;;;;;;19.71;81.98;99555.69;5029224;28;20275;-89
2022/09/07 07:21:58;;;;;;;5.13;1.95;;;;;;;19.74;82.65;99556.19;5030615;28;20301;-87
2022/09/07 07:24:23;;;;;;;6.73;1.70;;;;;;;19.70;83.09;99558.81;5030600;28;20037;-86
2022/09/07 07:26:48;;;;;;;6.07;3.10;;;;;;;19.64;82.35;99562.91;5030626;28;20337;-90
2022/09/07 07:29:14;;;;;;;5.70;2.92;;;;;;;19.90;81.84;99554.47;5030001;28;20512;-90
2022/09/07 07:31:39;;;;;;;6.07;2.72;;;;;;;19.92;82.07;99552.19;5030848;28;20068;-89
2022/09/07 07:34:04;;;;;;;5.47;2.00;;;;;;;20.01;81.23;99559.63;5030334;28;20071;-89
2022/09/07 07:36:30;;;;;;;3.90;1.85;;;;;;;20.23;80.77;99557.75;5030330;28;20036;-85
2022/09/07 07:38:56;;;;;;;5.57;1.80;;;;;;;20.27;80.54;99558.69;5029226;28;20049;-85
2022/09/07 07:41:25;;;;;;;4.72;2.17;;;;;;;20.31;80.35;99562.41;5030235;28;20040;-90
2022/09/07 07:43:55;;;;;;;7.50;2.92;;;;;;;20.46;80.87;99562.97;5030766;28;20033;-89
2022/09/07 07:46:22;;;;;;;2.80;1.33;;;;;;;20.36;80.07;99570.50;5041811;28;20041;-88
2022/09/07 07:48:48;;;;;;;7.88;2.65;;;;;;;20.61;79.76;99576.19;5031407;28;20036;-89
2022/09/07 07:51:13;;;;;;;12.13;1.60;;;;;;;20.50;79.18;99575.00;5027270;28;20026;-85
2022/09/07 07:53:40;;;;;;;5.47;2.10;;;;;;;20.55;80.66;99572.00;5030101;28;20049;-85
2022/09/07 07:56:06;;;;;;;5.00;2.10;;;;;;;20.63;81.08;99584.97;5029669;28;20534;-86
2022/09/07 07:58:33;;;;;;;4.43;1.70;;;;;;;20.67;80.06;99589.81;5029148;28;20059;-86
2022/09/07 08:01:05;;;;;;;3.55;1.50;;;;;;;20.67;78.67;99592.59;5029396;28;20029;-85
2022/09/07 08:03:34;;;;;;;4.32;1.85;;;;;;;20.79;79.09;99587.13;5026921;28;20017;-85
2022/09/07 08:06:11;;;;;;;5.55;2.03;;;;;;;20.85;79.55;99596.03;5029692;28;20037;-88
2022/09/07 08:08:37;;;;;;;6.05;1.40;;;;;;;20.72;79.50;99597.94;5029473;28;20037;-89
2022/09/07 08:11:07;;;;;;;3.33;1.27;;;;;;;20.50;78.38;99603.47;5029382;28;20037;-90
2022/09/07 08:13:43;;;;;;;1.98;1.17;;;;;;;20.36;76.57;99609.25;5030361;28;20158;-87
2022/09/07 08:16:09;;;;;;;3.72;1.38;;;;;;;20.43;77.77;99614.28;5027591;28;20033;-81
2022/09/07 08:18:36;;;;;;;6.38;1.92;;;;;;;20.50;77.14;99608.22;5031500;28;20033;-81
2022/09/07 08:21:03;;;;;;;2.65;1.42;;;;;;;20.74;76.85;99617.81;5033786;28;20151;-87
2022/09/07 08:23:30;;;;;;;4.35;1.90;;;;;;;20.91;76.52;99627.91;5035457;28;20022;-88
2022/09/07 08:25:57;;;;;;;3.20;1.40;;;;;;;21.15;75.14;99631.19;5036051;28;20125;-81
2022/09/07 08:28:24;;;;;;;4.50;1.48;;;;;;;21.25;74.31;99624.41;5031980;28;20021;-81
2022/09/07 08:30:50;;;;;;;3.22;1.80;;;;;;;21.22;74.05;99625.88;5032643;28;20422;-88
2022/09/07 08:33:15;;;;;;;3.30;1.40;;;;;;;21.23;73.56;99630.31;5034896;28;20033;-89
2022/09/07 08:35:40;;;;;;;3.58;1.45;;;;;;;21.30;72.46;99633.31;5034753;28;20033;-87
2022/09/07 08:38:06;;;;;;;3.63;1.40;;;;;;;21.42;72.48;99629.78;5034000;28;20026;-87
2022/09/07 08:40:35;;;;;;;6.25;2.33;;;;;;;21.48;72.28;99619.25;5033109;28;20033;-82
2022/09/07 08:43:13;;;;;;;3.35;1.70;;;;;;;21.63;71.08;99623.34;5029873;28;20546;-81
2022/09/07 08:45:45;;;;;;;3.00;1.35;;;;;;;21.74;71.13;99617.38;5032972;28;20039;-88
2022/09/07 08:48:19;;;;;;;4.22;1.80;;;;;;;21.78;70.42;99616.31;5033102;28;20065;-88
2022/09/07 08:50:54;;;;;;;3.28;1.55;;;;;;;21.68;69.27;99619.56;5030872;28;20056;-86
2022/09/07 08:53:21;;;;;;;5.15;1.60;;;;;;;21.77;69.31;99611.13;5033411;28;20037;-86
2022/09/07 08:55:55;;;;;;;3.67;2.03;;;;;;;21.71;69.13;99632.72;5033439;28;20021;-85
2022/09/07 08:58:40;;;;;;;5.85;1.80;;;;;;;21.83;69.52;99620.06;5033219;28;20021;-85
2022/09/07 09:01:18;;;;;;;3.70;1.90;;;;;;;21.56;69.75;99618.38;5031936;28;20120;-87
2022/09/07 09:03:45;;;;;;;4.13;2.42;;;;;;;21.44;69.76;99618.31;5030152;28;20496;-86
2022/09/07 09:06:21;;;;;;;4.22;2.10;;;;;;;21.38;70.14;99616.94;5032005;28;20025;-86
2022/09/07 09:09:00;;;;;;;5.70;2.25;;;;;;;21.50;70.35;99619.72;5053183;28;20029;-86
2022/09/07 09:11:50;;;;;;;5.85;2.08;;;;;;;21.58;70.57;99616.06;5029976;28;20465;-81
2022/09/07 09:14:29;;;;;;;6.78;3.28;;;;;;;21.99;68.77;99607.13;5030658;28;20041;-81
2022/09/07 09:17:01;;;;;;;4.53;2.40;;;;;;;22.23;67.94;99599.94;5029132;28;20080;-87
2022/09/07 09:19:45;;;;;;;4.22;2.67;;;;;;;22.22;67.93;99603.88;5030249;28;20473;-87
2022/09/07 09:22:24;;;;;;;5.18;2.00;;;;;;;22.16;68.05;99610.81;5031245;28;20029;-86
2022/09/07 09:25:20;;;;;;;6.53;2.67;;;;;;;22.24;66.36;99614.63;5030887;28;20026;-86
2022/09/07 09:27:48;;;;;;;4.47;1.98;;;;;;;21.76;68.22;99621.44;5026706;28;20033;-86
2022/09/07 09:30:23;;;;;;;3.88;2.17;;;;;;;21.60;68.35;99614.91;5031389;28;20033;-86
2022/09/07 09:32:51;;;;;;;5.50;2.85;;;;;;;21.85;68.50;99620.50;5030399;28;20025;-86
2022/09/07 09:35:38;;;;;;;5.75;2.67;;;;;;;21.86;67.35;99631.28;5033095;28;20026;-86
2022/09/07 09:38:03;;;;;;;6.72;2.85;;;;;;;21.99;68.52;99629.31;5031891;28;20036;-86
2022/09/07 09:40:31;;;;;;;6.60;3.08;;;;;;;22.14;68.61;99630.59;5030641;28;20492;-86
2022/09/07 09:43:18;;;;;;;5.45;3.10;;;;;;;22.20;69.05;99631.19;5032462;28;20025;-85
2022/09/07 09:45:46;;;;;;;5.20;2.95;;;;;;;22.22;67.80;99620.53;5029172;28;20037;-86
2022/09/07 09:48:20;;;;;;;7.47;3.03;;;;;;;22.01;68.02;99627.00;5030598;28;20049;-85
2022/09/07 09:50:52;;;;;;;5.88;2.45;;;;;;;22.05;68.12;99627.13;5030289;28;20102;-85
2022/09/07 09:53:38;;;;;;;5.55;3.00;;;;;;;22.25;67.09;99617.06;5031802;28;20497;-85
2022/09/07 09:56:05;;;;;;;7.10;3.58;;;;;;;22.24;67.55;99621.00;5028189;28;20033;-87
2022/09/07 09:58:36;;;;;;;8.77;3.38;;;;;;;22.33;67.88;99614.50;5032484;28;20334;-87
2022/09/07 10:01:24;;;;;;;5.78;2.97;;;;;;;22.50;67.24;99619.81;5031605;28;20072;-85
2022/09/07 10:03:50;;;;;;;15.10;4.30;;;;;;;22.30;67.94;99615.19;5028803;28;20021;-85
2022/09/07 10:06:17;;;;;;;7.20;3.30;;;;;;;22.56;67.61;99612.03;5031489;28;20038;-85
2022/09/07 10:08:59;;;;;;;9.02;3.22;;;;;;;22.69;66.37;99615.63;5028670;28;20116;-85
2022/09/07 10:11:49;;;;;;;11.52;3.20;;;;;;;22.68;65.91;99614.00;5028195;28;20065;-80
2022/09/07 10:14:22;;;;;;;6.32;3.75;;;;;;;22.65;65.80;99611.94;5028603;28;20033;-80
2022/09/07 10:16:48;;;;;;;5.13;2.50;;;;;;;22.60;65.25;99603.81;5028574;28;20529;-85
2022/09/07 10:19:28;;;;;;;9.15;2.55;;;;;;;22.92;65.15;99609.56;5027710;28;20116;-86
2022/09/07 10:21:59;;;;;;;4.68;2.10;;;;;;;22.91;63.65;99609.88;5030207;28;20496;-86
2022/09/07 10:24:29;;;;;;;8.73;3.10;;;;;;;23.04;63.59;99608.69;5028192;28;20469;-86
2022/09/07 10:26:55;;;;;;;4.05;2.20;;;;;;;23.05;63.09;99615.03;5032693;28;20021;-87
2022/09/07 10:29:23;;;;;;;7.47;2.90;;;;;;;23.20;62.40;99611.50;5031324;28;20029;-87
2022/09/07 10:32:21;;;;;;;4.63;2.42;;;;;;;22.93;63.10;99608.38;5031319;28;20026;-81
2022/09/07 10:35:10;;;;;;;4.22;2.10;;;;;;;23.12;61.50;99614.44;5027742;28;20114;-81
2022/09/07 10:37:38;;;;;;;6.95;2.13;;;;;;;23.20;62.41;99610.69;5028685;28;20041;-80
2022/09/07 10:40:20;;;;;;;3.80;2.05;;;;;;;22.92;62.36;99612.31;5028336;28;20036;-81
2022/09/07 10:42:59;;;;;;;4.22;1.83;;;;;;;22.96;62.81;99618.78;5026915;28;20030;-80
2022/09/07 10:45:57;;;;;;;5.30;2.17;;;;;;;23.05;62.15;99610.28;5029581;28;20064;-86
2022/09/07 10:48:42;;;;;;;15.38;2.42;;;;;;;23.11;62.80;99610.06;5029424;28;20049;-87
2022/09/07 10:51:14;;;;;;;5.07;2.25;;;;;;;23.05;62.38;99618.63;5028162;28;20071;-84
2022/09/07 10:53:52;;;;;;;4.75;1.75;;;;;;;22.87;63.32;99615.34;5029942;28;20116;-84
2022/09/07 10:56:34;;;;;;;5.38;2.53;;;;;;;22.92;63.09;99612.31;5030242;28;20033;-85
2022/09/07 10:59:34;;;;;;;5.85;2.30;;;;;;;22.70;63.83;99608.13;5028920;28;20120;-84
2022/09/07 11:02:20;;;;;;;3.50;1.92;;;;;;;23.02;63.56;99611.00;5029790;28;20032;-81
2022/09/07 11:05:16;;;;;;;11.40;3.10;;;;;;;23.10;62.47;99612.03;5030584;28;20059;-81
2022/09/07 11:08:19;;;;;;;3.35;2.00;;;;;;;23.07;63.48;99612.72;5030125;28;20036;-81
2022/09/07 11:11:10;;;;;;;5.22;1.88;;;;;;;23.33;62.96;99609.47;5027436;28;20030;-85
2022/09/07 11:13:40;;;;;;;3.63;2.28;;;;;;;23.21;63.44;99613.13;5030134;28;20468;-85
2022/09/07 11:16:13;;;;;;;3.60;2.17;;;;;;;23.38;62.76;99622.31;5030568;28;20025;-84
2022/09/07 11:18:44;;;;;;;2.72;1.70;;;;;;;23.58;62.93;99611.31;5027710;28;20029;-85
2022/09/07 11:21:16;;;;;;;4.43;2.38;;;;;;;23.11;63.24;99607.28;5030037;28;20037;-83
2022/09/07 11:23:46;;;;;;;5.40;1.73;;;;;;;23.00;64.33;99607.78;5029767;28;20029;-85
2022/09/07 11:26:20;;;;;;;4.43;1.70;;;;;;;22.78;64.33;99607.13;5033398;28;20030;-94
2022/09/07 11:29:17;;;;;;;4.15;1.60;;;;;;;22.72;63.86;99609.38;5029108;28;20045;-86
2022/09/07 11:31:51;;;;;;;5.40;2.35;;;;;;;22.66;64.38;99610.75;5028279;28;20044;-84
2022/09/07 11:34:24;;;;;;;3.30;1.48;;;;;;;22.61;65.57;99616.53;5028923;28;20029;-84
2022/09/07 11:36:57;;;;;;;2.78;1.48;;;;;;;22.74;63.87;99600.66;5029618;28;20596;-81
2022/09/07 11:39:29;;;;;;;3.30;1.65;;;;;;;22.82;64.17;99607.28;5025572;28;20037;-81
2022/09/07 11:42:13;;;;;;;4.40;1.27;;;;;;;22.92;64.49;99605.94;5031343;28;20654;-86
2022/09/07 11:44:44;;;;;;;;;;;;;;;22.73;64.03;99591.53;5030670;28;20030;-88
2022/09/07 11:47:33;;;;;;;4.15;1.30;;;;;;;23.03;63.44;99590.38;5029970;28;19917;-87
2022/09/07 11:49:58;;;;;;;5.63;2.28;;;;;;;23.17;62.78;99598.31;5014885;28;20111;-88
2022/09/07 11:52:41;;;;;;;3.92;1.80;;;;;;;23.35;62.96;99597.97;5013340;28;20672;-80